sensor_id;sensor_type;location;lat;lon;timestamp;pressure;altitude;pressure_sealevel;temperature;humidity
83177;BME280;73074;52.006;4.704;2024-01-30T00:03:48;102611.13;;;6.30;100.00
83177;BME280;73074;52.006;4.704;2024-01-30T00:08:57;102598.81;;;6.37;100.00
83177;BME280;73074;52.006;4.704;2024-01-30T00:14:06;102597.97;;;6.42;100.00
83177;BME280;73074;52.006;4.704;2024-01-30T00:24:58;102592.66;;;6.41;100.00
83177;BME280;73074;52.006;4.704;2024-01-30T00:30:18;102595.31;;;6.44;100.00
83177;BME280;73074;52.006;4.704;2024-01-30T00:35:20;102586.47;;;6.40;100.00
83177;BME280;73074;52.006;4.704;2024-01-30T00:40:34;102567.13;;;6.38;100.00
83177;BME280;73074;52.006;4.704;2024-01-30T00:45:48;102561.00;;;6.42;100.00
83177;BME280;73074;52.006;4.704;2024-01-30T00:50:50;102561.00;;;6.50;100.00
83177;BME280;73074;52.006;4.704;2024-01-30T00:55:54;102577.72;;;6.53;100.00
83177;BME280;73074;52.006;4.704;2024-01-30T01:01:00;102591.78;;;6.48;100.00
83177;BME280;73074;52.006;4.704;2024-01-30T01:06:10;102595.31;;;6.44;100.00
83177;BME280;73074;52.006;4.704;2024-01-30T01:11:21;102590.88;;;6.38;100.00
83177;BME280;73074;52.006;4.704;2024-01-30T01:16:32;102576.81;;;6.36;100.00
83177;BME280;73074;52.006;4.704;2024-01-30T01:21:59;102571.53;;;6.33;100.00
83177;BME280;73074;52.006;4.704;2024-01-30T01:27:05;102560.97;;;6.36;100.00
83177;BME280;73074;52.006;4.704;2024-01-30T01:32:06;102563.59;;;6.38;100.00
83177;BME280;73074;52.006;4.704;2024-01-30T01:37:07;102561.88;;;6.43;100.00
83177;BME280;73074;52.006;4.704;2024-01-30T01:42:12;102544.28;;;6.42;100.00
83177;BME280;73074;52.006;4.704;2024-01-30T01:47:17;102562.75;;;6.48;100.00
83177;BME280;73074;52.006;4.704;2024-01-30T01:52:25;102552.19;;;6.52;100.00
83177;BME280;73074;52.006;4.704;2024-01-30T01:57:41;102568.94;;;6.59;100.00
83177;BME280;73074;52.006;4.704;2024-01-30T02:02:53;102573.31;;;6.62;100.00
83177;BME280;73074;52.006;4.704;2024-01-30T02:08:29;102560.13;;;6.65;100.00
83177;BME280;73074;52.006;4.704;2024-01-30T02:13:37;102552.22;;;6.72;100.00
83177;BME280;73074;52.006;4.704;2024-01-30T02:18:39;102536.34;;;6.77;100.00
83177;BME280;73074;52.006;4.704;2024-01-30T02:23:59;102529.31;;;6.79;100.00
83177;BME280;73074;52.006;4.704;2024-01-30T02:29:06;102538.13;;;6.82;100.00
83177;BME280;73074;52.006;4.704;2024-01-30T02:34:26;102537.25;;;6.82;100.00
83177;BME280;73074;52.006;4.704;2024-01-30T02:39:33;102551.31;;;6.79;100.00
83177;BME280;73074;52.006;4.704;2024-01-30T02:44:50;102537.22;;;6.79;100.00
83177;BME280;73074;52.006;4.704;2024-01-30T02:49:57;102537.22;;;6.80;100.00
83177;BME280;73074;52.006;4.704;2024-01-30T02:55:29;102527.56;;;6.84;100.00
83177;BME280;73074;52.006;4.704;2024-01-30T03:00:38;102516.97;;;6.86;100.00
83177;BME280;73074;52.006;4.704;2024-01-30T03:05:39;102519.63;;;6.86;100.00
83177;BME280;73074;52.006;4.704;2024-01-30T03:10:54;102502.88;;;6.93;100.00
83177;BME280;73074;52.006;4.704;2024-01-30T03:16:24;102494.94;;;6.94;100.00
83177;BME280;73074;52.006;4.704;2024-01-30T03:21:28;102509.91;;;7.00;100.00
83177;BME280;73074;52.006;4.704;2024-01-30T03:26:53;102506.38;;;7.01;100.00
83177;BME280;73074;52.006;4.704;2024-01-30T03:31:57;102500.22;;;6.99;100.00
83177;BME280;73074;52.006;4.704;2024-01-30T03:36:58;102509.03;;;6.99;100.00
83177;BME280;73074;52.006;4.704;2024-01-30T03:42:14;102510.78;;;7.03;100.00
83177;BME280;73074;52.006;4.704;2024-01-30T03:47:21;102505.47;;;7.06;100.00
83177;BME280;73074;52.006;4.704;2024-01-30T03:52:32;102507.25;;;7.06;100.00
83177;BME280;73074;52.006;4.704;2024-01-30T03:57:37;102509.91;;;7.10;100.00
83177;BME280;73074;52.006;4.704;2024-01-30T04:02:40;102504.63;;;7.12;100.00
83177;BME280;73074;52.006;4.704;2024-01-30T04:07:46;102500.22;;;7.08;100.00
83177;BME280;73074;52.006;4.704;2024-01-30T04:12:54;102496.66;;;7.07;100.00
83177;BME280;73074;52.006;4.704;2024-01-30T04:17:59;102482.59;;;7.04;100.00
83177;BME280;73074;52.006;4.704;2024-01-30T04:23:02;102502.88;;;7.02;100.00
83177;BME280;73074;52.006;4.704;2024-01-30T04:28:05;102487.00;;;7.02;100.00
83177;BME280;73074;52.006;4.704;2024-01-30T04:33:08;102485.25;;;7.02;100.00
83177;BME280;73074;52.006;4.704;2024-01-30T04:38:14;102477.31;;;7.02;100.00
83177;BME280;73074;52.006;4.704;2024-01-30T04:43:23;102469.38;;;7.04;100.00
83177;BME280;73074;52.006;4.704;2024-01-30T04:48:32;102468.50;;;7.05;100.00
83177;BME280;73074;52.006;4.704;2024-01-30T04:54:09;102468.50;;;7.05;100.00
83177;BME280;73074;52.006;4.704;2024-01-30T04:59:23;102468.50;;;7.08;100.00
83177;BME280;73074;52.006;4.704;2024-01-30T05:04:52;102472.03;;;7.05;100.00
83177;BME280;73074;52.006;4.704;2024-01-30T05:09:53;102473.78;;;7.06;100.00
83177;BME280;73074;52.006;4.704;2024-01-30T05:15:06;102464.97;;;7.07;100.00
83177;BME280;73074;52.006;4.704;2024-01-30T05:20:23;102461.44;;;7.11;100.00
83177;BME280;73074;52.006;4.704;2024-01-30T05:25:53;102464.06;;;7.16;100.00
83177;BME280;73074;52.006;4.704;2024-01-30T05:31:18;102471.09;;;7.20;100.00
83177;BME280;73074;52.006;4.704;2024-01-30T05:36:27;102468.44;;;7.28;100.00
83177;BME280;73074;52.006;4.704;2024-01-30T05:41:28;102466.63;;;7.34;100.00
83177;BME280;73074;52.006;4.704;2024-01-30T05:46:56;102475.44;;;7.41;100.00
83177;BME280;73074;52.006;4.704;2024-01-30T05:52:26;102472.75;;;7.46;100.00
83177;BME280;73074;52.006;4.704;2024-01-30T05:57:39;102477.16;;;7.51;100.00
83177;BME280;73074;52.006;4.704;2024-01-30T06:02:45;102480.66;;;7.55;100.00
83177;BME280;73074;52.006;4.704;2024-01-30T06:13:54;102493.78;;;7.73;100.00
83177;BME280;73074;52.006;4.704;2024-01-30T06:19:24;102487.53;;;7.86;100.00
83177;BME280;73074;52.006;4.704;2024-01-30T06:24:35;102483.16;;;7.88;100.00
83177;BME280;73074;52.006;4.704;2024-01-30T06:29:48;102485.72;;;7.99;100.00
83177;BME280;73074;52.006;4.704;2024-01-30T06:34:50;102489.19;;;8.09;100.00
83177;BME280;73074;52.006;4.704;2024-01-30T06:40:08;102492.69;;;8.15;100.00
83177;BME280;73074;52.006;4.704;2024-01-30T06:45:19;102490.00;;;8.20;100.00
83177;BME280;73074;52.006;4.704;2024-01-30T06:50:31;102491.75;;;8.19;100.00
83177;BME280;73074;52.006;4.704;2024-01-30T06:56:04;102491.72;;;8.22;100.00
83177;BME280;73074;52.006;4.704;2024-01-30T07:01:12;102498.75;;;8.29;100.00
83177;BME280;73074;52.006;4.704;2024-01-30T07:06:27;102504.03;;;8.34;100.00
83177;BME280;73074;52.006;4.704;2024-01-30T07:11:34;102505.75;;;8.44;100.00
83177;BME280;73074;52.006;4.704;2024-01-30T07:16:38;102513.59;;;8.52;100.00
83177;BME280;73074;52.006;4.704;2024-01-30T07:21:42;102508.25;;;8.59;100.00
83177;BME280;73074;52.006;4.704;2024-01-30T07:27:00;102523.22;;;8.68;100.00
83177;BME280;73074;52.006;4.704;2024-01-30T07:32:02;102525.78;;;8.76;100.00
83177;BME280;73074;52.006;4.704;2024-01-30T07:37:07;102533.69;;;8.82;100.00
83177;BME280;73074;52.006;4.704;2024-01-30T07:42:21;102538.88;;;8.93;100.00
83177;BME280;73074;52.006;4.704;2024-01-30T07:47:46;102537.00;;;9.04;100.00
83177;BME280;73074;52.006;4.704;2024-01-30T07:52:55;102544.88;;;9.11;100.00
83177;BME280;73074;52.006;4.704;2024-01-30T07:57:58;102551.88;;;9.17;100.00
83177;BME280;73074;52.006;4.704;2024-01-30T08:03:08;102547.41;;;9.21;100.00
83177;BME280;73074;52.006;4.704;2024-01-30T08:08:10;102549.16;;;9.26;100.00
83177;BME280;73074;52.006;4.704;2024-01-30T08:13:44;102544.63;;;9.34;100.00
83177;BME280;73074;52.006;4.704;2024-01-30T08:19:00;102557.81;;;9.42;100.00
83177;BME280;73074;52.006;4.704;2024-01-30T08:24:22;102564.81;;;9.51;100.00
83177;BME280;73074;52.006;4.704;2024-01-30T08:29:45;102562.06;;;9.57;100.00
83177;BME280;73074;52.006;4.704;2024-01-30T08:34:53;102573.44;;;9.68;100.00
83177;BME280;73074;52.006;4.704;2024-01-30T08:40:40;102577.81;;;9.72;100.00
83177;BME280;73074;52.006;4.704;2024-01-30T08:46:27;102576.81;;;9.81;100.00
83177;BME280;73074;52.006;4.704;2024-01-30T08:51:36;102580.28;;;9.89;99.63
83177;BME280;73074;52.006;4.704;2024-01-30T08:56:40;102582.75;;;9.99;99.52
83177;BME280;73074;52.006;4.704;2024-01-30T09:01:43;102584.38;;;10.11;98.58
83177;BME280;73074;52.006;4.704;2024-01-30T09:12:07;102585.91;;;10.32;97.67
83177;BME280;73074;52.006;4.704;2024-01-30T09:17:20;102591.25;;;10.30;97.26
83177;BME280;73074;52.006;4.704;2024-01-30T09:22:31;102598.16;;;10.41;96.50
83177;BME280;73074;52.006;4.704;2024-01-30T09:27:44;102597.28;;;10.40;96.81
83177;BME280;73074;52.006;4.704;2024-01-30T09:33:25;102602.72;;;10.34;96.88
83177;BME280;73074;52.006;4.704;2024-01-30T09:38:29;102612.31;;;10.44;96.33
83177;BME280;73074;52.006;4.704;2024-01-30T09:49:18;102612.31;;;10.41;96.15
83177;BME280;73074;52.006;4.704;2024-01-30T09:54:29;102636.19;;;10.46;96.29
83177;BME280;73074;52.006;4.704;2024-01-30T09:59:59;102634.50;;;10.39;95.50
83177;BME280;73074;52.006;4.704;2024-01-30T10:05:07;102637.16;;;10.39;94.99
83177;BME280;73074;52.006;4.704;2024-01-30T10:10:28;102645.06;;;10.45;92.79
83177;BME280;73074;52.006;4.704;2024-01-30T10:15:49;102652.06;;;10.50;90.83
83177;BME280;73074;52.006;4.704;2024-01-30T10:21:16;102655.66;;;10.48;89.58
83177;BME280;73074;52.006;4.704;2024-01-30T10:26:29;102648.69;;;10.38;90.68
83177;BME280;73074;52.006;4.704;2024-01-30T10:36:59;102673.91;;;10.00;92.02
83177;BME280;73074;52.006;4.704;2024-01-30T10:42:44;102687.19;;;10.03;90.78
83177;BME280;73074;52.006;4.704;2024-01-30T10:54:05;102694.47;;;9.83;88.74
83177;BME280;73074;52.006;4.704;2024-01-30T11:12:06;102687.75;;;9.46;90.43
83177;BME280;73074;52.006;4.704;2024-01-30T11:23:33;102711.84;;;9.21;92.61
83177;BME280;73074;52.006;4.704;2024-01-30T11:29:13;102703.09;;;9.09;92.24
83177;BME280;73074;52.006;4.704;2024-01-30T11:34:35;102713.75;;;9.02;92.50
83177;BME280;73074;52.006;4.704;2024-01-30T11:40:45;102716.44;;;8.99;92.04
83177;BME280;73074;52.006;4.704;2024-01-30T11:46:06;102728.88;;;8.84;91.65
83177;BME280;73074;52.006;4.704;2024-01-30T11:51:26;102709.47;;;8.78;91.34
83177;BME280;73074;52.006;4.704;2024-01-30T11:56:59;102703.28;;;8.80;91.53
83177;BME280;73074;52.006;4.704;2024-01-30T12:02:33;102713.00;;;8.83;90.71
83177;BME280;73074;52.006;4.704;2024-01-30T12:07:54;102713.00;;;8.83;91.28
83177;BME280;73074;52.006;4.704;2024-01-30T12:13:23;102712.09;;;8.85;91.44
83177;BME280;73074;52.006;4.704;2024-01-30T12:18:34;102720.91;;;8.87;91.14
83177;BME280;73074;52.006;4.704;2024-01-30T12:23:54;102726.25;;;8.83;92.02
83177;BME280;73074;52.006;4.704;2024-01-30T12:28:56;102743.03;;;8.80;93.08
83177;BME280;73074;52.006;4.704;2024-01-30T12:34:29;102743.94;;;8.75;93.81
83177;BME280;73074;52.006;4.704;2024-01-30T12:39:38;102744.78;;;8.80;93.86
83177;BME280;73074;52.006;4.704;2024-01-30T12:44:49;102748.34;;;8.76;94.10
83177;BME280;73074;52.006;4.704;2024-01-30T12:50:04;102758.19;;;8.57;96.40
83177;BME280;73074;52.006;4.704;2024-01-30T12:55:30;102753.81;;;8.42;98.07
83177;BME280;73074;52.006;4.704;2024-01-30T13:01:02;102765.28;;;8.34;99.34
83177;BME280;73074;52.006;4.704;2024-01-30T13:06:06;102762.66;;;8.29;100.00
83177;BME280;73074;52.006;4.704;2024-01-30T13:11:41;102759.16;;;8.19;100.00
83177;BME280;73074;52.006;4.704;2024-01-30T13:16:46;102767.06;;;8.22;99.99
83177;BME280;73074;52.006;4.704;2024-01-30T13:22:07;102765.28;;;8.27;100.00
83177;BME280;73074;52.006;4.704;2024-01-30T13:27:25;102766.19;;;8.26;99.42
83177;BME280;73074;52.006;4.704;2024-01-30T13:32:39;102776.78;;;8.36;99.56
83177;BME280;73074;52.006;4.704;2024-01-30T13:37:46;102769.69;;;8.45;98.92
83177;BME280;73074;52.006;4.704;2024-01-30T13:43:09;102783.84;;;8.43;99.55
83177;BME280;73074;52.006;4.704;2024-01-30T13:48:48;102786.47;;;8.26;100.00
83177;BME280;73074;52.006;4.704;2024-01-30T13:53:52;102801.50;;;8.19;100.00
83177;BME280;73074;52.006;4.704;2024-01-30T13:58:56;102797.97;;;8.13;100.00
83177;BME280;73074;52.006;4.704;2024-01-30T14:04:02;102800.63;;;8.10;100.00
83177;BME280;73074;52.006;4.704;2024-01-30T14:09:13;102803.28;;;8.00;100.00
83177;BME280;73074;52.006;4.704;2024-01-30T14:14:25;102815.66;;;7.91;100.00
83177;BME280;73074;52.006;4.704;2024-01-30T14:19:35;102820.97;;;7.92;100.00
83177;BME280;73074;52.006;4.704;2024-01-30T14:24:57;102846.53;;;7.84;100.00
83177;BME280;73074;52.006;4.704;2024-01-30T14:30:19;102835.06;;;7.91;100.00
83177;BME280;73074;52.006;4.704;2024-01-30T14:35:27;102832.41;;;7.87;100.00
83177;BME280;73074;52.006;4.704;2024-01-30T14:40:38;102831.53;;;7.88;100.00
83177;BME280;73074;52.006;4.704;2024-01-30T14:45:42;102843.88;;;7.87;100.00
83177;BME280;73074;52.006;4.704;2024-01-30T14:50:58;102857.13;;;7.81;100.00
83177;BME280;73074;52.006;4.704;2024-01-30T14:56:14;102856.25;;;7.79;100.00
83177;BME280;73074;52.006;4.704;2024-01-30T15:01:17;102857.13;;;7.77;100.00
83177;BME280;73074;52.006;4.704;2024-01-30T15:06:19;102873.84;;;7.72;100.00
83177;BME280;73074;52.006;4.704;2024-01-30T15:11:29;102876.50;;;7.66;100.00
83177;BME280;73074;52.006;4.704;2024-01-30T15:16:42;102878.28;;;7.63;100.00
83177;BME280;73074;52.006;4.704;2024-01-30T15:21:52;102887.97;;;7.62;100.00
83177;BME280;73074;52.006;4.704;2024-01-30T15:26:53;102898.56;;;7.62;100.00
83177;BME280;73074;52.006;4.704;2024-01-30T15:32:01;102911.75;;;7.61;100.00
83177;BME280;73074;52.006;4.704;2024-01-30T15:37:12;102916.16;;;7.57;100.00
83177;BME280;73074;52.006;4.704;2024-01-30T15:42:58;102933.78;;;7.54;100.00
83177;BME280;73074;52.006;4.704;2024-01-30T15:48:15;102942.59;;;7.50;100.00
83177;BME280;73074;52.006;4.704;2024-01-30T15:53:46;102953.19;;;7.48;100.00
83177;BME280;73074;52.006;4.704;2024-01-30T15:59:12;102967.25;;;7.46;100.00
83177;BME280;73074;52.006;4.704;2024-01-30T16:04:25;102978.72;;;7.45;100.00
83177;BME280;73074;52.006;4.704;2024-01-30T16:09:37;102983.13;;;7.44;100.00
83177;BME280;73074;52.006;4.704;2024-01-30T16:14:46;102998.09;;;7.42;100.00
83177;BME280;73074;52.006;4.704;2024-01-30T16:19:53;102996.31;;;7.41;100.00
83177;BME280;73074;52.006;4.704;2024-01-30T16:25:18;103005.13;;;7.37;100.00
83177;BME280;73074;52.006;4.704;2024-01-30T16:30:22;103013.03;;;7.34;100.00
83177;BME280;73074;52.006;4.704;2024-01-30T16:35:48;103020.06;;;7.30;100.00
83177;BME280;73074;52.006;4.704;2024-01-30T16:40:56;103026.22;;;7.29;100.00
83177;BME280;73074;52.006;4.704;2024-01-30T16:46:10;103043.84;;;7.29;100.00
83177;BME280;73074;52.006;4.704;2024-01-30T16:51:11;103043.84;;;7.23;100.00
83177;BME280;73074;52.006;4.704;2024-01-30T16:56:12;103035.91;;;7.21;100.00
83177;BME280;73074;52.006;4.704;2024-01-30T17:01:13;103038.50;;;7.20;100.00
83177;BME280;73074;52.006;4.704;2024-01-30T17:06:16;103049.94;;;7.17;100.00
83177;BME280;73074;52.006;4.704;2024-01-30T17:11:21;103057.00;;;7.15;100.00
83177;BME280;73074;52.006;4.704;2024-01-30T17:16:21;103072.81;;;7.09;100.00
83177;BME280;73074;52.006;4.704;2024-01-30T17:21:22;103084.28;;;7.08;100.00
83177;BME280;73074;52.006;4.704;2024-01-30T17:26:30;103085.09;;;7.05;100.00
83177;BME280;73074;52.006;4.704;2024-01-30T17:31:32;103100.94;;;7.01;100.00
83177;BME280;73074;52.006;4.704;2024-01-30T17:36:41;103112.41;;;7.01;100.00
83177;BME280;73074;52.006;4.704;2024-01-30T17:41:44;103123.84;;;7.02;100.00
83177;BME280;73074;52.006;4.704;2024-01-30T17:46:51;103135.28;;;6.99;100.00
83177;BME280;73074;52.006;4.704;2024-01-30T17:51:52;103145.78;;;6.92;100.00
83177;BME280;73074;52.006;4.704;2024-01-30T17:56:53;103155.44;;;6.90;100.00
83177;BME280;73074;52.006;4.704;2024-01-30T18:02:00;103164.28;;;6.92;100.00
83177;BME280;73074;52.006;4.704;2024-01-30T18:07:01;103170.44;;;6.91;100.00
83177;BME280;73074;52.006;4.704;2024-01-30T18:12:04;103165.13;;;6.88;100.00
83177;BME280;73074;52.006;4.704;2024-01-30T18:17:08;103188.91;;;6.86;100.00
83177;BME280;73074;52.006;4.704;2024-01-30T18:22:26;103193.31;;;6.87;100.00
83177;BME280;73074;52.006;4.704;2024-01-30T18:27:37;103195.94;;;6.86;100.00
83177;BME280;73074;52.006;4.704;2024-01-30T18:32:40;103200.34;;;6.88;100.00
83177;BME280;73074;52.006;4.704;2024-01-30T18:37:54;103204.78;;;6.91;100.00
83177;BME280;73074;52.006;4.704;2024-01-30T18:42:56;103219.78;;;6.93;100.00
83177;BME280;73074;52.006;4.704;2024-01-30T18:48:03;103215.34;;;6.91;100.00
83177;BME280;73074;52.006;4.704;2024-01-30T18:53:10;103228.59;;;6.94;100.00
83177;BME280;73074;52.006;4.704;2024-01-30T18:58:15;103222.41;;;6.93;100.00
83177;BME280;73074;52.006;4.704;2024-01-30T19:03:17;103224.16;;;6.91;100.00
83177;BME280;73074;52.006;4.704;2024-01-30T19:08:26;103239.97;;;6.85;100.00
83177;BME280;73074;52.006;4.704;2024-01-30T19:14:05;103253.16;;;6.82;100.00
83177;BME280;73074;52.006;4.704;2024-01-30T19:19:42;103267.25;;;6.82;100.00
83177;BME280;73074;52.006;4.704;2024-01-30T19:25:11;103273.41;;;6.83;100.00
83177;BME280;73074;52.006;4.704;2024-01-30T19:30:27;103288.34;;;6.81;100.00
83177;BME280;73074;52.006;4.704;2024-01-30T19:35:53;103284.84;;;6.82;100.00
83177;BME280;73074;52.006;4.704;2024-01-30T19:41:19;103298.06;;;6.82;100.00
83177;BME280;73074;52.006;4.704;2024-01-30T19:46:20;103315.69;;;6.83;100.00
83177;BME280;73074;52.006;4.704;2024-01-30T19:56:43;103307.63;;;6.71;100.00
83177;BME280;73074;52.006;4.704;2024-01-30T20:01:52;103309.31;;;6.67;100.00
83177;BME280;73074;52.006;4.704;2024-01-30T20:13:00;103325.13;;;6.66;100.00
83177;BME280;73074;52.006;4.704;2024-01-30T20:35:28;103342.53;;;6.50;100.00
83177;BME280;73074;52.006;4.704;2024-01-30T20:40:35;103353.13;;;6.51;100.00
83177;BME280;73074;52.006;4.704;2024-01-30T20:46:07;103361.81;;;6.43;100.00
83177;BME280;73074;52.006;4.704;2024-01-30T20:51:24;103363.63;;;6.47;100.00
83177;BME280;73074;52.006;4.704;2024-01-30T20:56:26;103364.38;;;6.40;100.00
83177;BME280;73074;52.006;4.704;2024-01-30T21:01:38;103383.81;;;6.42;100.00
83177;BME280;73074;52.006;4.704;2024-01-30T21:07:01;103393.47;;;6.41;100.00
83177;BME280;73074;52.006;4.704;2024-01-30T21:12:12;103399.59;;;6.40;100.00
83177;BME280;73074;52.006;4.704;2024-01-30T21:17:25;103393.41;;;6.37;100.00
83177;BME280;73074;52.006;4.704;2024-01-30T21:22:45;103408.28;;;6.32;100.00
83177;BME280;73074;52.006;4.704;2024-01-30T21:27:56;103416.13;;;6.27;100.00
83177;BME280;73074;52.006;4.704;2024-01-30T21:33:42;103426.66;;;6.26;100.00
83177;BME280;73074;52.006;4.704;2024-01-30T21:43:53;103438.91;;;6.20;100.00
83177;BME280;73074;52.006;4.704;2024-01-30T21:55:14;103445.94;;;6.20;99.40
83177;BME280;73074;52.006;4.704;2024-01-30T22:00:39;103438.03;;;6.21;99.63
83177;BME280;73074;52.006;4.704;2024-01-30T22:06:00;103444.16;;;6.19;99.24
83177;BME280;73074;52.006;4.704;2024-01-30T22:11:22;103455.56;;;6.16;99.03
83177;BME280;73074;52.006;4.704;2024-01-30T22:16:41;103453.69;;;6.12;99.12
83177;BME280;73074;52.006;4.704;2024-01-30T22:27:42;103460.66;;;6.06;99.40
83177;BME280;73074;52.006;4.704;2024-01-30T22:39:09;103469.94;;;5.87;100.00
83177;BME280;73074;52.006;4.704;2024-01-30T22:44:23;103463.47;;;5.71;100.00
83177;BME280;73074;52.006;4.704;2024-01-30T22:49:41;103450.22;;;5.67;100.00
83177;BME280;73074;52.006;4.704;2024-01-30T22:54:48;103451.94;;;5.64;100.00
83177;BME280;73074;52.006;4.704;2024-01-30T23:05:21;103461.69;;;5.69;100.00
83177;BME280;73074;52.006;4.704;2024-01-30T23:10:36;103460.69;;;5.62;100.00
83177;BME280;73074;52.006;4.704;2024-01-30T23:15:55;103460.69;;;5.62;100.00
83177;BME280;73074;52.006;4.704;2024-01-30T23:21:12;103460.63;;;5.60;100.00
83177;BME280;73074;52.006;4.704;2024-01-30T23:32:25;103484.44;;;5.63;100.00
83177;BME280;73074;52.006;4.704;2024-01-30T23:37:26;103483.53;;;5.61;100.00
83177;BME280;73074;52.006;4.704;2024-01-30T23:42:36;103488.75;;;5.60;100.00
83177;BME280;73074;52.006;4.704;2024-01-30T23:47:52;103497.53;;;5.59;100.00
83177;BME280;73074;52.006;4.704;2024-01-30T23:53:23;103507.19;;;5.58;100.00
83177;BME280;73074;52.006;4.704;2024-01-30T23:58:30;103507.19;;;5.58;100.00
